createdAt,value
2022-10-11T00:01:59.225Z,20.25
2022-10-11T00:04:26.021Z,24.65
2022-10-11T00:06:52.658Z,22.27
2022-10-11T00:09:19.427Z,19.70
2022-10-11T00:11:46.006Z,26.73
2022-10-11T00:14:12.703Z,22.30
2022-10-11T00:16:41.650Z,23.38
2022-10-11T00:19:08.325Z,26.17
2022-10-11T00:21:36.691Z,23.10
2022-10-11T00:24:04.416Z,24.08
2022-10-11T00:26:31.088Z,24.40
2022-10-11T00:28:57.767Z,22.55
2022-10-11T00:31:24.804Z,18.50
2022-10-11T00:33:53.767Z,22.70
2022-10-11T00:36:21.711Z,20.83
2022-10-11T00:38:48.440Z,18.95
2022-10-11T00:41:16.279Z,23.30
2022-10-11T00:43:44.410Z,21.92
2022-10-11T00:46:14.061Z,21.27
2022-10-11T00:48:55.347Z,25.40
2022-10-11T00:51:58.693Z,21.80
2022-10-11T00:56:58.711Z,20.77
2022-10-11T00:59:29.034Z,21.23
2022-10-11T01:01:55.851Z,24.50
2022-10-11T01:04:22.731Z,22.55
2022-10-11T01:06:50.610Z,23.23
2022-10-11T01:09:20.150Z,21.83
2022-10-11T01:11:48.659Z,21.17
2022-10-11T01:14:37.434Z,23.38
2022-10-11T01:17:18.913Z,24.08
2022-10-11T01:20:18.788Z,28.02
2022-10-11T01:23:07.302Z,21.15
2022-10-11T01:25:42.932Z,23.83
2022-10-11T01:28:45.068Z,21.92
2022-10-11T01:31:20.828Z,20.90
2022-10-11T01:34:02.006Z,27.30
2022-10-11T01:37:05.842Z,22.65
2022-10-11T01:39:48.555Z,19.83
2022-10-11T01:42:18.722Z,23.20
2022-10-11T01:44:48.192Z,22.95
2022-10-11T01:47:22.682Z,21.27
2022-10-11T01:49:57.728Z,18.38
2022-10-11T01:52:27.230Z,19.83
2022-10-11T01:55:09.544Z,17.75
2022-10-11T01:57:39.283Z,20.42
2022-10-11T02:00:18.308Z,19.77
2022-10-11T02:03:04.981Z,18.50
2022-10-11T02:05:43.184Z,19.77
2022-10-11T02:08:31.625Z,18.92
2022-10-11T02:11:01.162Z,22.50
2022-10-11T02:13:47.303Z,19.75
2022-10-11T02:16:19.870Z,19.80
2022-10-11T02:18:51.218Z,18.88
2022-10-11T02:21:20.808Z,19.70
2022-10-11T02:23:53.886Z,20.08
2022-10-11T02:26:23.389Z,19.65
2022-10-11T02:28:53.028Z,16.88
2022-10-11T02:31:21.722Z,16.05
2022-10-11T02:33:56.426Z,15.00
2022-10-11T02:36:36.641Z,16.75
2022-10-11T02:39:09.727Z,18.38
2022-10-11T02:41:41.010Z,16.45
2022-10-11T02:44:18.952Z,20.70
2022-10-11T02:46:47.479Z,18.23
2022-10-11T02:49:16.163Z,15.60
2022-10-11T02:51:43.003Z,16.50
2022-10-11T02:54:09.734Z,19.10
2022-10-11T02:56:36.643Z,17.60
2022-10-11T02:59:03.562Z,14.85
2022-10-11T03:01:30.611Z,16.30
2022-10-11T03:03:57.639Z,15.75
2022-10-11T03:06:26.316Z,15.65
2022-10-11T03:08:53.158Z,14.68
2022-10-11T03:11:20.283Z,19.13
2022-10-11T03:13:47.080Z,17.25
2022-10-11T03:16:14.696Z,20.63
2022-10-11T03:18:41.538Z,17.02
2022-10-11T03:21:08.180Z,14.00
2022-10-11T03:23:34.791Z,17.17
2022-10-11T03:26:04.410Z,13.02
2022-10-11T03:28:31.469Z,14.57
2022-10-11T03:30:58.139Z,17.95
2022-10-11T03:33:25.031Z,17.25
2022-10-11T03:35:53.181Z,15.73
2022-10-11T03:38:21.951Z,15.32
2022-10-11T03:40:48.619Z,13.75
2022-10-11T03:43:15.717Z,14.93
2022-10-11T03:45:42.448Z,15.88
2022-10-11T03:48:09.459Z,16.70
2022-10-11T03:50:36.707Z,14.55
2022-10-11T03:53:04.271Z,21.67
2022-10-11T03:55:31.039Z,14.80
2022-10-11T03:57:58.113Z,17.70
2022-10-11T04:00:24.903Z,15.30
2022-10-11T04:02:51.550Z,20.52
2022-10-11T04:05:18.469Z,21.05
2022-10-11T04:07:45.104Z,17.77
2022-10-11T04:10:12.030Z,19.23
2022-10-11T04:12:39.208Z,17.02
2022-10-11T04:15:06.980Z,22.70
2022-10-11T04:17:34.144Z,17.25
2022-10-11T04:20:00.859Z,16.05
2022-10-11T04:22:27.504Z,18.65
2022-10-11T04:24:54.178Z,17.67
2022-10-11T04:27:20.879Z,16.48
2022-10-11T04:29:47.531Z,16.65
2022-10-11T04:32:14.321Z,17.85
2022-10-11T04:34:41.946Z,19.58
2022-10-11T04:37:08.636Z,14.55
2022-10-11T04:39:35.515Z,18.20
2022-10-11T04:42:02.228Z,15.38
2022-10-11T04:44:28.944Z,20.15
2022-10-11T04:46:55.685Z,15.73
2022-10-11T04:49:23.306Z,14.75
2022-10-11T04:51:49.935Z,15.90
2022-10-11T04:54:16.575Z,15.80
2022-10-11T04:56:43.815Z,15.52
2022-10-11T04:59:10.826Z,18.75
2022-10-11T05:01:37.666Z,14.93
2022-10-11T05:04:04.385Z,14.95
2022-10-11T05:06:31.225Z,15.40
2022-10-11T05:08:57.812Z,16.02
2022-10-11T05:11:24.992Z,16.17
2022-10-11T05:13:51.798Z,19.08
2022-10-11T05:16:18.959Z,18.77
2022-10-11T05:18:45.619Z,23.45
2022-10-11T05:21:24.820Z,20.73
2022-10-11T05:23:52.991Z,20.02
2022-10-11T05:26:20.467Z,22.98
2022-10-11T05:28:48.106Z,17.75
2022-10-11T05:31:15.235Z,19.50
2022-10-11T05:33:42.902Z,17.90
2022-10-11T05:36:10.260Z,19.17
2022-10-11T05:38:37.148Z,16.23
2022-10-11T05:41:05.435Z,18.95
2022-10-11T05:43:32.786Z,19.52
2022-10-11T05:45:59.484Z,18.65
2022-10-11T05:48:26.841Z,17.10
2022-10-11T05:50:58.348Z,18.38
2022-10-11T05:53:24.976Z,17.63
2022-10-11T05:55:51.829Z,17.75
2022-10-11T05:58:18.804Z,16.52
2022-10-11T06:00:45.916Z,18.35
2022-10-11T06:03:14.261Z,19.90
2022-10-11T06:05:41.216Z,43.47
2022-10-11T06:08:09.886Z,29.38
2022-10-11T06:10:38.290Z,22.10
2022-10-11T06:13:05.650Z,25.73
2022-10-11T06:15:33.119Z,25.23
2022-10-11T06:17:59.846Z,23.65
2022-10-11T06:20:27.297Z,27.05
2022-10-11T06:22:54.018Z,19.80
2022-10-11T06:25:21.139Z,19.13
2022-10-11T06:27:47.793Z,22.95
2022-10-11T06:30:15.338Z,20.15
2022-10-11T06:32:41.985Z,19.20
2022-10-11T06:35:09.191Z,21.33
2022-10-11T06:37:36.057Z,21.23
2022-10-11T06:40:03.185Z,21.88
2022-10-11T06:42:29.939Z,21.38
2022-10-11T06:44:56.917Z,23.13
2022-10-11T06:47:23.625Z,21.10
2022-10-11T06:49:50.261Z,19.98
2022-10-11T06:52:16.934Z,16.88
2022-10-11T06:54:45.097Z,20.30
2022-10-11T06:57:12.619Z,20.35
2022-10-11T06:59:39.617Z,21.75
2022-10-11T07:02:06.884Z,18.52
2022-10-11T07:04:34.118Z,17.60
2022-10-11T07:07:01.356Z,17.60
2022-10-11T07:09:28.171Z,18.23
2022-10-11T07:11:54.937Z,16.58
2022-10-11T07:14:21.901Z,17.85
2022-10-11T07:16:48.549Z,15.32
2022-10-11T07:19:15.205Z,14.65
2022-10-11T07:21:41.872Z,17.50
2022-10-11T07:24:08.993Z,15.52
2022-10-11T07:26:38.496Z,16.95
2022-10-11T07:29:08.732Z,15.27
2022-10-11T07:31:38.659Z,19.05
2022-10-11T07:34:05.370Z,15.65
2022-10-11T07:36:32.248Z,13.30
2022-10-11T07:38:59.054Z,13.65
2022-10-11T07:41:25.889Z,15.93
2022-10-11T07:43:54.930Z,12.93
2022-10-11T07:46:22.525Z,17.85
2022-10-11T07:48:50.436Z,17.13
2022-10-11T07:51:21.050Z,17.17
2022-10-11T07:53:50.623Z,16.67
2022-10-11T07:56:20.685Z,14.52
2022-10-11T07:58:53.250Z,13.30
2022-10-11T08:01:21.275Z,9.77
2022-10-11T08:03:49.059Z,14.32
2022-10-11T08:06:19.282Z,12.43
2022-10-11T08:08:46.537Z,17.17
2022-10-11T08:11:24.622Z,22.38
2022-10-11T08:13:52.001Z,17.55
2022-10-11T08:16:18.684Z,20.92
2022-10-11T08:18:45.922Z,16.08
2022-10-11T08:21:15.727Z,13.85
2022-10-11T08:23:42.388Z,17.02
2022-10-11T08:26:11.297Z,13.25
2022-10-11T08:28:38.469Z,16.20
2022-10-11T08:31:05.756Z,17.40
2022-10-11T08:33:32.876Z,16.02
2022-10-11T08:36:04.930Z,14.73
2022-10-11T08:38:32.768Z,20.40
2022-10-11T08:41:00.924Z,14.50
2022-10-11T08:43:53.070Z,18.90
2022-10-11T08:46:26.436Z,19.00
2022-10-11T08:48:54.394Z,19.02
2022-10-11T08:51:27.169Z,18.58
2022-10-11T08:54:20.247Z,20.40
2022-10-11T08:56:47.393Z,20.00
2022-10-11T08:59:33.964Z,17.45
2022-10-11T09:02:26.339Z,18.73
2022-10-11T09:04:55.748Z,14.32
2022-10-11T09:07:34.554Z,13.02
2022-10-11T09:10:04.303Z,16.38
2022-10-11T09:13:31.121Z,14.32
2022-10-11T09:16:10.405Z,16.88
2022-10-11T09:19:04.493Z,17.33
2022-10-11T09:21:43.265Z,17.17
2022-10-11T09:24:19.094Z,18.42
2022-10-11T09:26:56.615Z,18.27
2022-10-11T09:29:47.837Z,15.80
2022-10-11T09:32:17.936Z,23.70
2022-10-11T09:34:44.816Z,15.43
2022-10-11T09:37:30.618Z,13.25
2022-10-11T09:40:06.777Z,16.42
2022-10-11T09:42:33.792Z,20.80
2022-10-11T09:45:01.199Z,17.42
2022-10-11T09:47:30.479Z,18.02
2022-10-11T09:50:16.793Z,15.25
2022-10-11T09:52:55.857Z,17.27
2022-10-11T09:55:50.929Z,17.40
2022-10-11T09:58:31.547Z,15.35
2022-10-11T10:01:08.014Z,17.65
2022-10-11T10:03:46.127Z,13.88
2022-10-11T10:06:27.872Z,15.45
2022-10-11T10:08:55.562Z,11.75
2022-10-11T10:11:22.714Z,15.27
2022-10-11T10:13:56.032Z,20.83
2022-10-11T10:16:34.232Z,16.83
2022-10-11T10:19:02.077Z,16.70
2022-10-11T10:21:34.140Z,11.93
2022-10-11T10:24:05.369Z,13.10
2022-10-11T10:26:32.582Z,14.85
2022-10-11T10:29:08.248Z,12.18
2022-10-11T10:35:02.682Z,11.07
2022-10-11T10:37:39.705Z,11.98
2022-10-11T10:40:14.474Z,8.10
2022-10-11T10:42:41.450Z,10.88
2022-10-11T10:45:17.434Z,9.88
2022-10-11T10:48:23.473Z,8.35
2022-10-11T10:51:00.824Z,8.07
2022-10-11T10:53:33.748Z,10.02
2022-10-11T10:56:11.218Z,10.63
2022-10-11T10:59:25.522Z,9.77
2022-10-11T11:02:39.676Z,10.23
2022-10-11T11:05:46.775Z,10.63
2022-10-11T11:08:35.006Z,16.63
2022-10-11T11:11:40.152Z,12.98
2022-10-11T11:14:07.278Z,13.07
2022-10-11T11:16:54.631Z,10.95
2022-10-11T11:19:38.442Z,12.30
2022-10-11T11:22:50.192Z,9.55
2022-10-11T11:25:22.862Z,10.70
2022-10-11T11:28:17.484Z,8.98
2022-10-11T11:30:59.522Z,10.25
2022-10-11T11:33:49.681Z,7.95
2022-10-11T11:36:35.631Z,8.07
2022-10-11T11:39:05.073Z,6.57
2022-10-11T11:41:43.585Z,7.68
2022-10-11T11:44:16.266Z,7.57
2022-10-11T11:46:51.553Z,10.68
2022-10-11T11:49:25.204Z,8.18
2022-10-11T11:51:55.813Z,9.85
2022-10-11T11:54:47.174Z,10.30
2022-10-11T11:57:49.884Z,7.00
2022-10-11T12:00:23.085Z,8.88
2022-10-11T12:03:01.910Z,9.52
2022-10-11T12:05:36.436Z,10.02
2022-10-11T12:08:26.038Z,6.63
2022-10-11T12:11:01.424Z,8.40
2022-10-11T12:13:37.112Z,7.75
2022-10-11T12:16:04.752Z,7.72
2022-10-11T12:18:35.642Z,8.63
2022-10-11T12:21:16.895Z,9.23
2022-10-11T12:23:47.084Z,8.95
2022-10-11T12:26:32.499Z,8.18
2022-10-11T12:29:07.614Z,9.27
2022-10-11T12:31:36.732Z,10.07
2022-10-11T12:34:09.713Z,8.00
2022-10-11T12:36:38.326Z,10.30
2022-10-11T12:39:19.937Z,7.05
2022-10-11T12:44:28.818Z,9.88
2022-10-11T12:46:55.458Z,9.98
2022-10-11T12:49:24.695Z,12.88
2022-10-11T12:52:01.475Z,5.38
2022-10-11T12:54:37.407Z,15.70
2022-10-11T12:57:29.224Z,6.00
2022-10-11T13:00:16.312Z,7.82
2022-10-11T13:02:43.604Z,10.77
2022-10-11T13:05:31.663Z,7.97
2022-10-11T13:08:04.424Z,10.07
2022-10-11T13:10:39.517Z,9.98
2022-10-11T13:13:15.974Z,11.45
2022-10-11T13:15:51.849Z,10.40
2022-10-11T13:18:22.844Z,14.30
2022-10-11T13:20:49.765Z,9.43
2022-10-11T13:23:25.716Z,13.70
2022-10-11T13:25:54.181Z,10.88
2022-10-11T13:28:23.637Z,10.82
2022-10-11T13:30:56.164Z,9.45
2022-10-11T13:33:26.879Z,8.73
2022-10-11T13:35:53.993Z,12.27
2022-10-11T13:38:26.731Z,7.70
2022-10-11T13:40:56.135Z,6.50
2022-10-11T13:43:27.531Z,10.95
2022-10-11T13:45:57.129Z,12.35
2022-10-11T13:48:28.166Z,8.20
2022-10-11T13:51:28.754Z,11.68
2022-10-11T13:54:07.777Z,7.75
2022-10-11T13:56:51.494Z,10.23
2022-10-11T13:59:23.777Z,11.10
2022-10-11T14:01:57.614Z,9.75
2022-10-11T14:04:29.535Z,11.80
2022-10-11T14:07:02.751Z,8.32
2022-10-11T14:09:37.041Z,10.27
2022-10-11T14:12:28.551Z,7.90
2022-10-11T14:14:55.589Z,13.48
2022-10-11T14:17:32.879Z,10.60
2022-10-11T14:20:14.451Z,6.90
2022-10-11T14:22:41.511Z,8.82
2022-10-11T14:25:08.590Z,12.68
2022-10-11T14:27:36.912Z,14.27
2022-10-11T14:30:31.845Z,12.82
2022-10-11T14:33:01.539Z,11.63
2022-10-11T14:35:31.122Z,10.73
2022-10-11T14:37:58.451Z,13.45
2022-10-11T14:40:29.888Z,12.20
2022-10-11T14:42:57.164Z,15.57
2022-10-11T14:45:24.399Z,9.10
2022-10-11T14:47:52.129Z,12.32
2022-10-11T14:50:30.417Z,9.15
2022-10-11T14:52:58.054Z,10.27
2022-10-11T14:55:25.257Z,8.50
2022-10-11T14:57:52.266Z,10.18
2022-10-11T15:00:27.677Z,10.98
2022-10-11T15:02:55.868Z,18.17
2022-10-11T15:05:28.679Z,11.98
2022-10-11T15:07:58.531Z,11.65
2022-10-11T15:10:33.733Z,17.95
2022-10-11T15:13:01.169Z,12.07
2022-10-11T15:15:32.859Z,16.48
2022-10-11T15:18:00.481Z,10.50
2022-10-11T15:20:38.395Z,14.07
2022-10-11T15:23:07.951Z,10.30
2022-10-11T15:25:37.914Z,12.18
2022-10-11T15:28:06.104Z,12.07
2022-10-11T15:30:41.075Z,13.75
2022-10-11T15:33:09.234Z,13.85
2022-10-11T15:35:35.974Z,12.35
2022-10-11T15:38:03.182Z,12.55
2022-10-11T15:40:36.047Z,9.07
2022-10-11T15:43:03.953Z,12.43
2022-10-11T15:45:31.415Z,16.10
2022-10-11T15:47:58.660Z,16.77
2022-10-11T15:50:36.769Z,13.70
2022-10-11T15:53:05.272Z,13.68
2022-10-11T15:55:35.501Z,12.00
2022-10-11T15:58:02.570Z,12.68
2022-10-11T16:00:30.663Z,16.85
2022-10-11T16:02:59.035Z,11.27
2022-10-11T16:05:28.498Z,15.98
2022-10-11T16:07:55.489Z,17.17
2022-10-11T16:10:22.638Z,19.27
2022-10-11T16:12:49.633Z,15.95
2022-10-11T16:15:17.108Z,11.52
2022-10-11T16:17:45.384Z,15.57
2022-10-11T16:20:13.669Z,12.38
2022-10-11T16:22:41.396Z,14.15
2022-10-11T16:25:08.319Z,12.43
2022-10-11T16:27:35.752Z,14.80
2022-10-11T16:30:02.952Z,11.50
2022-10-11T16:32:33.435Z,16.40
2022-10-11T16:35:00.451Z,14.23
2022-10-11T16:37:27.413Z,13.77
2022-10-11T16:39:54.284Z,11.18
2022-10-11T16:42:21.034Z,12.73
2022-10-11T16:44:47.698Z,17.17
2022-10-11T16:47:15.815Z,12.15
2022-10-11T16:49:42.918Z,14.65
2022-10-11T16:52:14.110Z,11.65
2022-10-11T16:54:47.814Z,12.63
2022-10-11T16:57:16.217Z,13.40
2022-10-11T16:59:43.394Z,12.98
2022-10-11T17:02:27.634Z,13.10
2022-10-11T17:04:58.753Z,13.60
2022-10-11T17:07:26.342Z,13.10
2022-10-11T17:09:53.279Z,15.63
2022-10-11T17:12:23.667Z,11.88
2022-10-11T17:14:51.598Z,11.75
2022-10-11T17:17:19.410Z,17.38
2022-10-11T17:19:47.782Z,16.40
2022-10-11T17:22:18.294Z,10.80
2022-10-11T17:24:47.634Z,13.20
2022-10-11T17:27:14.595Z,11.90
2022-10-11T17:29:41.584Z,11.35
2022-10-11T17:32:08.707Z,11.35
2022-10-11T17:34:35.703Z,10.38
2022-10-11T17:37:02.652Z,14.95
2022-10-11T17:39:29.496Z,14.00
2022-10-11T17:41:56.204Z,15.07
2022-10-11T17:44:23.037Z,16.25
2022-10-11T17:46:50.327Z,15.68
2022-10-11T17:49:17.047Z,11.00
2022-10-11T17:51:44.193Z,14.48
2022-10-11T17:54:13.087Z,10.73
2022-10-11T17:56:43.073Z,15.65
2022-10-11T17:59:16.898Z,12.30
2022-10-11T18:01:43.778Z,14.65
2022-10-11T18:04:16.522Z,12.05
2022-10-11T18:06:46.294Z,12.48
2022-10-11T18:09:15.304Z,13.65
2022-10-11T18:11:42.589Z,14.27
2022-10-11T18:14:10.028Z,17.23
2022-10-11T18:16:38.631Z,10.10
2022-10-11T18:19:10.084Z,13.80
2022-10-11T18:21:38.007Z,16.25
2022-10-11T18:24:12.832Z,14.32
2022-10-11T18:26:39.962Z,14.57
2022-10-11T18:29:07.503Z,15.00
2022-10-11T18:31:35.363Z,15.88
2022-10-11T18:34:04.065Z,14.43
2022-10-11T18:36:32.478Z,14.95
2022-10-11T18:39:02.431Z,13.55
2022-10-11T18:41:32.126Z,12.90
2022-10-11T18:44:02.434Z,16.55
2022-10-11T18:46:30.160Z,20.15
2022-10-11T18:48:58.360Z,16.75
2022-10-11T18:51:26.928Z,15.20
2022-10-11T18:53:55.323Z,14.63
2022-10-11T18:56:24.814Z,12.50
2022-10-11T18:58:53.662Z,16.17
2022-10-11T19:01:26.399Z,16.20
2022-10-11T19:03:56.716Z,14.23
2022-10-11T19:06:27.437Z,14.40
2022-10-11T19:09:03.870Z,17.38
2022-10-11T19:11:32.543Z,18.13
2022-10-11T19:14:02.638Z,15.43
2022-10-11T19:16:30.629Z,16.25
2022-10-11T19:18:57.476Z,18.90
2022-10-11T19:21:24.346Z,13.50
2022-10-11T19:23:51.950Z,13.48
2022-10-11T19:26:24.319Z,14.88
2022-10-11T19:28:56.707Z,14.88
2022-10-11T19:31:25.439Z,14.10
2022-10-11T19:33:52.694Z,19.05
2022-10-11T19:36:20.159Z,21.45
2022-10-11T19:38:48.757Z,20.70
2022-10-11T19:41:18.125Z,17.40
2022-10-11T19:43:46.379Z,16.98
2022-10-11T19:46:20.265Z,20.67
2022-10-11T19:48:51.570Z,18.48
2022-10-11T19:51:23.792Z,17.30
2022-10-11T19:54:00.252Z,15.75
2022-10-11T19:56:31.340Z,15.20
2022-10-11T19:58:58.390Z,20.55
2022-10-11T20:01:27.488Z,21.65
2022-10-11T20:03:56.774Z,17.35
2022-10-11T20:06:25.347Z,18.02
2022-10-11T20:09:10.335Z,17.02
2022-10-11T20:11:39.503Z,16.20
2022-10-11T20:14:06.216Z,18.08
2022-10-11T20:16:33.221Z,23.30
2022-10-11T20:19:00.312Z,15.55
2022-10-11T20:21:29.771Z,15.02
2022-10-11T20:24:02.490Z,15.90
2022-10-11T20:26:30.773Z,21.83
2022-10-11T20:28:58.265Z,19.65
2022-10-11T20:31:34.581Z,20.48
2022-10-11T20:34:15.421Z,14.63
2022-10-11T20:36:48.904Z,16.88
2022-10-11T20:39:16.437Z,16.77
2022-10-11T20:41:44.038Z,15.23
2022-10-11T20:44:13.306Z,14.20
2022-10-11T20:46:40.203Z,16.58
2022-10-11T20:49:10.394Z,12.75
2022-10-11T20:51:39.736Z,14.30
2022-10-11T20:54:06.665Z,17.55
2022-10-11T20:56:34.326Z,13.43
2022-10-11T20:59:01.927Z,11.98
2022-10-11T21:01:40.682Z,16.35
2022-10-11T21:04:10.285Z,13.50
2022-10-11T21:06:37.404Z,18.38
2022-10-11T21:09:04.413Z,12.07
2022-10-11T21:11:33.478Z,15.77
2022-10-11T21:14:03.419Z,17.75
2022-10-11T21:16:31.005Z,14.10
2022-10-11T21:18:59.494Z,14.20
2022-10-11T21:21:27.566Z,14.60
2022-10-11T21:23:59.609Z,15.57
2022-10-11T21:26:27.586Z,16.00
2022-10-11T21:28:54.915Z,15.75
2022-10-11T21:31:22.472Z,14.30
2022-10-11T21:33:49.905Z,15.43
2022-10-11T21:36:18.063Z,13.55
2022-10-11T21:38:45.036Z,16.92
2022-10-11T21:41:15.639Z,17.23
2022-10-11T21:43:42.674Z,17.10
2022-10-11T21:46:15.893Z,13.50
2022-10-11T21:48:43.246Z,15.38
2022-10-11T21:51:23.698Z,17.13
2022-10-11T21:53:51.208Z,16.20
2022-10-11T21:56:18.107Z,19.33
2022-10-11T21:58:49.346Z,17.90
2022-10-11T22:01:17.729Z,18.42
2022-10-11T22:03:45.819Z,13.43
2022-10-11T22:06:31.521Z,14.45
2022-10-11T22:08:58.311Z,21.17
2022-10-11T22:11:25.503Z,17.42
2022-10-11T22:13:52.641Z,17.02
2022-10-11T22:16:20.546Z,18.80
2022-10-11T22:18:47.469Z,13.80
2022-10-11T22:21:21.522Z,12.65
2022-10-11T22:23:50.321Z,20.48
2022-10-11T22:26:26.804Z,13.73
2022-10-11T22:28:53.557Z,17.17
2022-10-11T22:31:22.350Z,16.33
2022-10-11T22:33:53.005Z,17.55
2022-10-11T22:36:20.270Z,14.98
2022-10-11T22:38:47.324Z,15.27
2022-10-11T22:41:14.260Z,16.70
2022-10-11T22:43:41.110Z,14.82
2022-10-11T22:46:08.701Z,14.55
2022-10-11T22:48:35.508Z,14.82
2022-10-11T22:51:03.654Z,19.00
2022-10-11T22:53:30.994Z,14.48
2022-10-11T22:55:58.412Z,17.67
2022-10-11T22:58:25.654Z,17.40
2022-10-11T23:00:52.568Z,15.07
2022-10-11T23:03:20.046Z,17.25
2022-10-11T23:05:57.818Z,21.55
2022-10-11T23:08:25.466Z,15.93
2022-10-11T23:10:52.891Z,13.07
2022-10-11T23:13:20.235Z,15.25
2022-10-11T23:15:46.955Z,13.85
2022-10-11T23:18:16.531Z,14.93
2022-10-11T23:20:43.732Z,17.20
2022-10-11T23:23:10.567Z,14.25
2022-10-11T23:25:37.418Z,16.23
2022-10-11T23:28:04.511Z,17.58
2022-10-11T23:30:31.453Z,16.35
2022-10-11T23:32:58.276Z,18.40
2022-10-11T23:35:25.305Z,14.20
2022-10-11T23:37:53.707Z,18.40
2022-10-11T23:40:20.897Z,19.15
2022-10-11T23:42:47.665Z,14.68
2022-10-11T23:45:14.706Z,12.93
2022-10-11T23:47:41.356Z,13.95
2022-10-11T23:50:09.227Z,20.17
2022-10-11T23:52:36.336Z,14.55
2022-10-11T23:55:03.821Z,11.98
2022-10-11T23:57:30.406Z,17.05
2022-10-11T23:59:57.486Z,18.92
